sensor_id;sensor_type;location;lat;lon;timestamp;temperature;humidity
67598;DHT22;62026;39.230;9.122;2023-04-01T00:01:05;16.30;69.10
67598;DHT22;62026;39.230;9.122;2023-04-01T00:03:32;16.20;69.10
67598;DHT22;62026;39.230;9.122;2023-04-01T00:06:00;16.20;69.10
67598;DHT22;62026;39.230;9.122;2023-04-01T00:08:27;16.20;69.10
67598;DHT22;62026;39.230;9.122;2023-04-01T00:10:54;16.20;69.20
67598;DHT22;62026;39.230;9.122;2023-04-01T00:13:21;16.20;69.20
67598;DHT22;62026;39.230;9.122;2023-04-01T00:15:48;16.20;69.30
67598;DHT22;62026;39.230;9.122;2023-04-01T00:18:14;16.20;69.30
67598;DHT22;62026;39.230;9.122;2023-04-01T00:20:48;16.20;69.20
67598;DHT22;62026;39.230;9.122;2023-04-01T00:23:16;16.20;69.30
67598;DHT22;62026;39.230;9.122;2023-04-01T00:25:44;16.10;69.40
67598;DHT22;62026;39.230;9.122;2023-04-01T00:28:12;16.10;69.40
67598;DHT22;62026;39.230;9.122;2023-04-01T00:30:38;16.10;69.40
67598;DHT22;62026;39.230;9.122;2023-04-01T00:33:04;16.10;69.40
67598;DHT22;62026;39.230;9.122;2023-04-01T00:35:30;16.10;69.50
67598;DHT22;62026;39.230;9.122;2023-04-01T00:37:58;16.10;69.60
67598;DHT22;62026;39.230;9.122;2023-04-01T00:42:50;16.10;69.60
67598;DHT22;62026;39.230;9.122;2023-04-01T00:45:35;16.10;69.70
67598;DHT22;62026;39.230;9.122;2023-04-01T00:48:11;16.10;69.70
67598;DHT22;62026;39.230;9.122;2023-04-01T00:50:54;16.10;69.70
67598;DHT22;62026;39.230;9.122;2023-04-01T00:53:36;16.10;69.70
67598;DHT22;62026;39.230;9.122;2023-04-01T00:56:27;16.00;69.80
67598;DHT22;62026;39.230;9.122;2023-04-01T00:59:05;16.10;69.70
67598;DHT22;62026;39.230;9.122;2023-04-01T01:01:37;16.00;69.80
67598;DHT22;62026;39.230;9.122;2023-04-01T01:04:03;16.00;69.80
67598;DHT22;62026;39.230;9.122;2023-04-01T01:06:48;16.00;70.00
67598;DHT22;62026;39.230;9.122;2023-04-01T01:12:32;16.00;70.00
67598;DHT22;62026;39.230;9.122;2023-04-01T01:15:46;16.00;70.00
67598;DHT22;62026;39.230;9.122;2023-04-01T01:18:21;16.00;70.10
67598;DHT22;62026;39.230;9.122;2023-04-01T01:27:20;16.00;70.00
67598;DHT22;62026;39.230;9.122;2023-04-01T01:33:41;16.00;70.10
67598;DHT22;62026;39.230;9.122;2023-04-01T01:36:17;15.90;70.10
67598;DHT22;62026;39.230;9.122;2023-04-01T01:38:48;15.90;70.00
67598;DHT22;62026;39.230;9.122;2023-04-01T01:41:17;15.90;69.90
67598;DHT22;62026;39.230;9.122;2023-04-01T01:43:48;15.90;70.00
67598;DHT22;62026;39.230;9.122;2023-04-01T01:46:22;15.90;69.90
67598;DHT22;62026;39.230;9.122;2023-04-01T01:48:51;15.80;70.00
67598;DHT22;62026;39.230;9.122;2023-04-01T01:51:20;15.90;70.00
67598;DHT22;62026;39.230;9.122;2023-04-01T01:53:48;15.80;70.00
67598;DHT22;62026;39.230;9.122;2023-04-01T01:56:17;15.80;69.90
67598;DHT22;62026;39.230;9.122;2023-04-01T01:59:13;15.80;70.00
67598;DHT22;62026;39.230;9.122;2023-04-01T02:01:46;15.80;70.10
67598;DHT22;62026;39.230;9.122;2023-04-01T02:04:19;15.80;70.10
67598;DHT22;62026;39.230;9.122;2023-04-01T02:07:02;15.80;70.10
67598;DHT22;62026;39.230;9.122;2023-04-01T02:09:30;15.80;70.10
67598;DHT22;62026;39.230;9.122;2023-04-01T02:11:59;15.80;70.00
67598;DHT22;62026;39.230;9.122;2023-04-01T02:14:54;15.80;70.10
67598;DHT22;62026;39.230;9.122;2023-04-01T02:17:27;15.80;70.10
67598;DHT22;62026;39.230;9.122;2023-04-01T02:20:07;15.80;70.20
67598;DHT22;62026;39.230;9.122;2023-04-01T02:22:48;15.80;70.30
67598;DHT22;62026;39.230;9.122;2023-04-01T02:25:37;15.80;70.30
67598;DHT22;62026;39.230;9.122;2023-04-01T02:28:08;15.80;70.20
67598;DHT22;62026;39.230;9.122;2023-04-01T02:30:37;15.80;70.20
67598;DHT22;62026;39.230;9.122;2023-04-01T02:33:06;15.80;70.30
67598;DHT22;62026;39.230;9.122;2023-04-01T02:35:35;15.80;70.30
67598;DHT22;62026;39.230;9.122;2023-04-01T02:38:03;15.80;70.20
67598;DHT22;62026;39.230;9.122;2023-04-01T02:40:50;15.80;70.20
67598;DHT22;62026;39.230;9.122;2023-04-01T02:43:22;15.80;70.20
67598;DHT22;62026;39.230;9.122;2023-04-01T02:45:48;15.80;70.20
67598;DHT22;62026;39.230;9.122;2023-04-01T02:48:14;15.80;70.10
67598;DHT22;62026;39.230;9.122;2023-04-01T02:50:40;15.80;70.00
67598;DHT22;62026;39.230;9.122;2023-04-01T02:53:06;15.80;69.90
67598;DHT22;62026;39.230;9.122;2023-04-01T02:55:33;15.80;69.90
67598;DHT22;62026;39.230;9.122;2023-04-01T02:58:00;15.80;69.80
67598;DHT22;62026;39.230;9.122;2023-04-01T03:00:27;15.80;69.70
67598;DHT22;62026;39.230;9.122;2023-04-01T03:02:53;15.80;69.60
67598;DHT22;62026;39.230;9.122;2023-04-01T03:05:20;15.80;69.50
67598;DHT22;62026;39.230;9.122;2023-04-01T03:07:46;15.80;69.50
67598;DHT22;62026;39.230;9.122;2023-04-01T03:10:13;15.70;69.50
67598;DHT22;62026;39.230;9.122;2023-04-01T03:12:39;15.80;69.50
67598;DHT22;62026;39.230;9.122;2023-04-01T03:15:06;15.70;69.40
67598;DHT22;62026;39.230;9.122;2023-04-01T03:17:32;15.80;69.40
67598;DHT22;62026;39.230;9.122;2023-04-01T03:19:58;15.70;69.30
67598;DHT22;62026;39.230;9.122;2023-04-01T03:22:25;15.70;69.30
67598;DHT22;62026;39.230;9.122;2023-04-01T03:24:53;15.70;69.40
67598;DHT22;62026;39.230;9.122;2023-04-01T03:27:19;15.70;69.40
67598;DHT22;62026;39.230;9.122;2023-04-01T03:29:46;15.70;69.30
67598;DHT22;62026;39.230;9.122;2023-04-01T03:32:12;15.70;69.30
67598;DHT22;62026;39.230;9.122;2023-04-01T03:34:38;15.60;69.30
67598;DHT22;62026;39.230;9.122;2023-04-01T03:37:04;15.70;69.30
67598;DHT22;62026;39.230;9.122;2023-04-01T03:39:31;15.60;69.30
67598;DHT22;62026;39.230;9.122;2023-04-01T03:41:58;15.60;69.20
67598;DHT22;62026;39.230;9.122;2023-04-01T03:44:24;15.70;69.10
67598;DHT22;62026;39.230;9.122;2023-04-01T03:46:52;15.60;69.10
67598;DHT22;62026;39.230;9.122;2023-04-01T03:49:18;15.60;69.10
67598;DHT22;62026;39.230;9.122;2023-04-01T03:51:45;15.60;69.10
67598;DHT22;62026;39.230;9.122;2023-04-01T03:54:11;15.60;68.90
67598;DHT22;62026;39.230;9.122;2023-04-01T03:56:37;15.60;68.90
67598;DHT22;62026;39.230;9.122;2023-04-01T03:59:06;15.60;68.90
67598;DHT22;62026;39.230;9.122;2023-04-01T04:01:33;15.60;68.80
67598;DHT22;62026;39.230;9.122;2023-04-01T04:04:00;15.60;68.70
67598;DHT22;62026;39.230;9.122;2023-04-01T04:06:27;15.60;68.70
67598;DHT22;62026;39.230;9.122;2023-04-01T04:08:54;15.60;68.70
67598;DHT22;62026;39.230;9.122;2023-04-01T04:11:21;15.50;68.90
67598;DHT22;62026;39.230;9.122;2023-04-01T04:13:50;15.50;68.80
67598;DHT22;62026;39.230;9.122;2023-04-01T04:16:19;15.50;68.80
67598;DHT22;62026;39.230;9.122;2023-04-01T04:18:50;15.50;68.70
67598;DHT22;62026;39.230;9.122;2023-04-01T04:21:17;15.50;68.70
67598;DHT22;62026;39.230;9.122;2023-04-01T04:23:43;15.50;68.70
67598;DHT22;62026;39.230;9.122;2023-04-01T04:26:12;15.50;68.40
67598;DHT22;62026;39.230;9.122;2023-04-01T04:28:41;15.50;68.40
67598;DHT22;62026;39.230;9.122;2023-04-01T04:31:08;15.50;68.40
67598;DHT22;62026;39.230;9.122;2023-04-01T04:33:35;15.50;68.40
67598;DHT22;62026;39.230;9.122;2023-04-01T04:36:03;15.50;68.40
67598;DHT22;62026;39.230;9.122;2023-04-01T04:38:30;15.50;68.40
67598;DHT22;62026;39.230;9.122;2023-04-01T04:40:56;15.50;68.40
67598;DHT22;62026;39.230;9.122;2023-04-01T04:43:25;15.50;68.40
67598;DHT22;62026;39.230;9.122;2023-04-01T04:45:51;15.50;68.40
67598;DHT22;62026;39.230;9.122;2023-04-01T04:48:17;15.50;68.40
67598;DHT22;62026;39.230;9.122;2023-04-01T04:50:46;15.50;68.60
67598;DHT22;62026;39.230;9.122;2023-04-01T04:53:15;15.50;68.60
67598;DHT22;62026;39.230;9.122;2023-04-01T04:55:49;15.50;68.60
67598;DHT22;62026;39.230;9.122;2023-04-01T04:58:32;15.40;68.70
67598;DHT22;62026;39.230;9.122;2023-04-01T05:01:09;15.40;68.60
67598;DHT22;62026;39.230;9.122;2023-04-01T05:03:38;15.40;68.60
67598;DHT22;62026;39.230;9.122;2023-04-01T05:06:06;15.40;68.60
67598;DHT22;62026;39.230;9.122;2023-04-01T05:08:34;15.40;68.60
67598;DHT22;62026;39.230;9.122;2023-04-01T05:11:01;15.40;68.50
67598;DHT22;62026;39.230;9.122;2023-04-01T05:13:29;15.40;68.50
67598;DHT22;62026;39.230;9.122;2023-04-01T05:15:56;15.40;68.50
67598;DHT22;62026;39.230;9.122;2023-04-01T05:18:22;15.40;68.40
67598;DHT22;62026;39.230;9.122;2023-04-01T05:20:50;15.40;68.40
67598;DHT22;62026;39.230;9.122;2023-04-01T05:23:18;15.40;68.30
67598;DHT22;62026;39.230;9.122;2023-04-01T05:25:48;15.40;68.40
67598;DHT22;62026;39.230;9.122;2023-04-01T05:28:15;15.40;68.30
67598;DHT22;62026;39.230;9.122;2023-04-01T05:30:44;15.40;68.30
67598;DHT22;62026;39.230;9.122;2023-04-01T05:33:34;15.40;68.40
67598;DHT22;62026;39.230;9.122;2023-04-01T05:36:10;15.40;68.20
67598;DHT22;62026;39.230;9.122;2023-04-01T05:38:41;15.40;68.00
67598;DHT22;62026;39.230;9.122;2023-04-01T05:41:10;15.40;67.70
67598;DHT22;62026;39.230;9.122;2023-04-01T05:43:40;15.40;67.30
67598;DHT22;62026;39.230;9.122;2023-04-01T05:46:27;15.40;67.00
67598;DHT22;62026;39.230;9.122;2023-04-01T05:48:59;15.40;66.40
67598;DHT22;62026;39.230;9.122;2023-04-01T05:51:26;15.50;66.20
67598;DHT22;62026;39.230;9.122;2023-04-01T05:53:52;15.50;65.40
67598;DHT22;62026;39.230;9.122;2023-04-01T05:56:18;15.50;64.70
67598;DHT22;62026;39.230;9.122;2023-04-01T05:58:51;15.60;64.50
67598;DHT22;62026;39.230;9.122;2023-04-01T06:01:20;15.60;64.20
67598;DHT22;62026;39.230;9.122;2023-04-01T06:03:47;15.70;63.80
67598;DHT22;62026;39.230;9.122;2023-04-01T06:06:15;15.70;63.30
67598;DHT22;62026;39.230;9.122;2023-04-01T06:08:48;15.80;62.70
67598;DHT22;62026;39.230;9.122;2023-04-01T06:11:35;15.90;62.30
67598;DHT22;62026;39.230;9.122;2023-04-01T06:17:18;16.10;61.30
67598;DHT22;62026;39.230;9.122;2023-04-01T06:23:24;16.10;60.20
67598;DHT22;62026;39.230;9.122;2023-04-01T06:35:30;16.30;61.20
67598;DHT22;62026;39.230;9.122;2023-04-01T06:38:31;16.30;60.90
67598;DHT22;62026;39.230;9.122;2023-04-01T06:44:11;16.60;61.60
67598;DHT22;62026;39.230;9.122;2023-04-01T06:47:14;16.80;61.70
67598;DHT22;62026;39.230;9.122;2023-04-01T06:50:53;16.90;60.40
67598;DHT22;62026;39.230;9.122;2023-04-01T06:54:18;17.30;61.70
67598;DHT22;62026;39.230;9.122;2023-04-01T07:00:02;17.70;60.60
67598;DHT22;62026;39.230;9.122;2023-04-01T07:02:48;17.80;60.10
67598;DHT22;62026;39.230;9.122;2023-04-01T07:05:23;17.80;58.50
67598;DHT22;62026;39.230;9.122;2023-04-01T07:07:59;17.80;57.50
67598;DHT22;62026;39.230;9.122;2023-04-01T07:10:47;17.90;56.90
67598;DHT22;62026;39.230;9.122;2023-04-01T07:13:51;18.00;56.50
67598;DHT22;62026;39.230;9.122;2023-04-01T07:16:29;17.70;55.00
67598;DHT22;62026;39.230;9.122;2023-04-01T07:19:31;17.60;54.20
67598;DHT22;62026;39.230;9.122;2023-04-01T07:22:29;17.70;53.60
67598;DHT22;62026;39.230;9.122;2023-04-01T07:25:22;17.80;53.30
67598;DHT22;62026;39.230;9.122;2023-04-01T07:28:13;17.90;52.50
67598;DHT22;62026;39.230;9.122;2023-04-01T07:33:46;18.10;52.10
67598;DHT22;62026;39.230;9.122;2023-04-01T07:45:44;18.60;51.00
67598;DHT22;62026;39.230;9.122;2023-04-01T07:48:48;18.70;50.80
67598;DHT22;62026;39.230;9.122;2023-04-01T07:51:41;18.90;50.50
67598;DHT22;62026;39.230;9.122;2023-04-01T07:57:10;19.20;49.80
67598;DHT22;62026;39.230;9.122;2023-04-01T08:06:38;19.60;48.70
67598;DHT22;62026;39.230;9.122;2023-04-01T08:15:26;19.90;48.00
67598;DHT22;62026;39.230;9.122;2023-04-01T08:18:32;20.00;48.00
67598;DHT22;62026;39.230;9.122;2023-04-01T08:23:52;20.40;47.20
67598;DHT22;62026;39.230;9.122;2023-04-01T08:26:37;20.50;46.60
67598;DHT22;62026;39.230;9.122;2023-04-01T08:29:18;20.60;45.90
67598;DHT22;62026;39.230;9.122;2023-04-01T08:32:00;20.70;45.70
67598;DHT22;62026;39.230;9.122;2023-04-01T08:34:37;20.80;45.00
67598;DHT22;62026;39.230;9.122;2023-04-01T08:37:15;20.90;44.80
67598;DHT22;62026;39.230;9.122;2023-04-01T08:39:58;20.90;44.90
67598;DHT22;62026;39.230;9.122;2023-04-01T08:55:51;21.30;42.50
67598;DHT22;62026;39.230;9.122;2023-04-01T09:05:35;21.30;42.90
67598;DHT22;62026;39.230;9.122;2023-04-01T09:23:43;21.90;41.60
67598;DHT22;62026;39.230;9.122;2023-04-01T09:26:33;21.90;41.80
67598;DHT22;62026;39.230;9.122;2023-04-01T09:29:16;21.90;41.80
67598;DHT22;62026;39.230;9.122;2023-04-01T10:08:30;21.80;41.40
67598;DHT22;62026;39.230;9.122;2023-04-01T10:36:39;21.80;38.70
67598;DHT22;62026;39.230;9.122;2023-04-01T10:42:55;21.60;38.80
67598;DHT22;62026;39.230;9.122;2023-04-01T10:49:06;21.50;38.90
67598;DHT22;62026;39.230;9.122;2023-04-01T10:59:24;21.50;36.60
67598;DHT22;62026;39.230;9.122;2023-04-01T11:20:28;21.10;40.50
67598;DHT22;62026;39.230;9.122;2023-04-01T11:26:32;20.80;40.50
67598;DHT22;62026;39.230;9.122;2023-04-01T11:29:56;20.80;41.20
67598;DHT22;62026;39.230;9.122;2023-04-01T12:09:04;20.50;41.00
67598;DHT22;62026;39.230;9.122;2023-04-01T12:18:05;20.50;40.20
67598;DHT22;62026;39.230;9.122;2023-04-01T12:21:09;20.50;40.30
67598;DHT22;62026;39.230;9.122;2023-04-01T12:27:38;20.60;39.80
67598;DHT22;62026;39.230;9.122;2023-04-01T12:30:27;20.60;39.70
67598;DHT22;62026;39.230;9.122;2023-04-01T12:44:41;20.20;37.20
67598;DHT22;62026;39.230;9.122;2023-04-01T13:02:42;20.30;38.90
67598;DHT22;62026;39.230;9.122;2023-04-01T13:17:20;20.20;39.30
67598;DHT22;62026;39.230;9.122;2023-04-01T13:23:01;20.10;39.40
67598;DHT22;62026;39.230;9.122;2023-04-01T13:28:32;20.00;40.10
67598;DHT22;62026;39.230;9.122;2023-04-01T13:37:09;20.00;39.30
67598;DHT22;62026;39.230;9.122;2023-04-01T13:42:40;19.90;39.50
67598;DHT22;62026;39.230;9.122;2023-04-01T13:45:21;19.90;39.60
67598;DHT22;62026;39.230;9.122;2023-04-01T13:48:22;19.80;38.90
67598;DHT22;62026;39.230;9.122;2023-04-01T14:15:00;19.70;40.30
67598;DHT22;62026;39.230;9.122;2023-04-01T14:23:37;19.80;42.40
67598;DHT22;62026;39.230;9.122;2023-04-01T14:46:34;19.50;45.70
67598;DHT22;62026;39.230;9.122;2023-04-01T14:49:37;19.40;45.60
67598;DHT22;62026;39.230;9.122;2023-04-01T14:54:44;19.50;46.90
67598;DHT22;62026;39.230;9.122;2023-04-01T14:57:30;19.50;46.90
67598;DHT22;62026;39.230;9.122;2023-04-01T15:08:47;19.40;47.40
67598;DHT22;62026;39.230;9.122;2023-04-01T15:11:37;19.40;47.80
67598;DHT22;62026;39.230;9.122;2023-04-01T15:23:11;19.30;48.80
67598;DHT22;62026;39.230;9.122;2023-04-01T15:32:23;19.20;49.80
67598;DHT22;62026;39.230;9.122;2023-04-01T15:35:19;19.10;49.60
67598;DHT22;62026;39.230;9.122;2023-04-01T15:38:05;19.10;49.50
67598;DHT22;62026;39.230;9.122;2023-04-01T15:43:47;19.10;49.30
67598;DHT22;62026;39.230;9.122;2023-04-01T15:49:46;19.10;49.80
67598;DHT22;62026;39.230;9.122;2023-04-01T15:52:35;19.00;50.20
67598;DHT22;62026;39.230;9.122;2023-04-01T15:55:43;19.00;50.20
67598;DHT22;62026;39.230;9.122;2023-04-01T15:58:26;18.90;50.50
67598;DHT22;62026;39.230;9.122;2023-04-01T16:12:18;18.70;47.50
67598;DHT22;62026;39.230;9.122;2023-04-01T16:23:47;18.50;49.30
67598;DHT22;62026;39.230;9.122;2023-04-01T16:26:36;18.50;49.60
67598;DHT22;62026;39.230;9.122;2023-04-01T16:32:40;18.40;49.90
67598;DHT22;62026;39.230;9.122;2023-04-01T16:38:21;18.30;49.60
67598;DHT22;62026;39.230;9.122;2023-04-01T16:44:08;18.30;49.50
67598;DHT22;62026;39.230;9.122;2023-04-01T16:46:58;18.30;49.50
67598;DHT22;62026;39.230;9.122;2023-04-01T16:49:42;18.20;49.80
67598;DHT22;62026;39.230;9.122;2023-04-01T16:52:17;18.20;50.30
67598;DHT22;62026;39.230;9.122;2023-04-01T16:55:19;18.20;50.30
67598;DHT22;62026;39.230;9.122;2023-04-01T16:57:51;18.20;50.30
67598;DHT22;62026;39.230;9.122;2023-04-01T17:00:38;18.10;50.00
67598;DHT22;62026;39.230;9.122;2023-04-01T17:03:18;18.10;50.10
67598;DHT22;62026;39.230;9.122;2023-04-01T17:09:35;18.10;50.50
67598;DHT22;62026;39.230;9.122;2023-04-01T17:20:48;17.90;50.90
67598;DHT22;62026;39.230;9.122;2023-04-01T17:23:32;17.90;51.00
67598;DHT22;62026;39.230;9.122;2023-04-01T17:43:08;17.70;51.60
67598;DHT22;62026;39.230;9.122;2023-04-01T17:51:49;17.70;51.50
67598;DHT22;62026;39.230;9.122;2023-04-01T18:00:34;17.60;51.70
67598;DHT22;62026;39.230;9.122;2023-04-01T18:11:47;17.40;51.90
67598;DHT22;62026;39.230;9.122;2023-04-01T18:17:25;17.40;52.10
67598;DHT22;62026;39.230;9.122;2023-04-01T18:20:18;17.30;52.20
67598;DHT22;62026;39.230;9.122;2023-04-01T18:25:49;17.30;52.30
67598;DHT22;62026;39.230;9.122;2023-04-01T18:28:40;17.30;52.80
67598;DHT22;62026;39.230;9.122;2023-04-01T18:32:00;17.30;52.50
67598;DHT22;62026;39.230;9.122;2023-04-01T18:34:18;17.30;52.50
67598;DHT22;62026;39.230;9.122;2023-04-01T18:37:12;17.30;52.50
67598;DHT22;62026;39.230;9.122;2023-04-01T18:40:20;17.30;52.50
67598;DHT22;62026;39.230;9.122;2023-04-01T18:43:29;17.20;52.70
67598;DHT22;62026;39.230;9.122;2023-04-01T18:46:39;17.20;53.00
67598;DHT22;62026;39.230;9.122;2023-04-01T18:49:29;17.20;53.20
67598;DHT22;62026;39.230;9.122;2023-04-01T18:52:26;17.20;53.30
67598;DHT22;62026;39.230;9.122;2023-04-01T18:57:50;17.10;53.10
67598;DHT22;62026;39.230;9.122;2023-04-01T19:00:26;17.10;53.00
67598;DHT22;62026;39.230;9.122;2023-04-01T19:03:21;17.10;53.00
67598;DHT22;62026;39.230;9.122;2023-04-01T19:06:00;17.10;53.10
67598;DHT22;62026;39.230;9.122;2023-04-01T19:08:41;17.00;53.30
67598;DHT22;62026;39.230;9.122;2023-04-01T19:11:31;17.00;53.30
67598;DHT22;62026;39.230;9.122;2023-04-01T19:23:16;16.90;53.30
67598;DHT22;62026;39.230;9.122;2023-04-01T19:25:58;16.80;53.40
67598;DHT22;62026;39.230;9.122;2023-04-01T19:28:47;16.80;53.50
67598;DHT22;62026;39.230;9.122;2023-04-01T19:34:47;16.80;53.80
67598;DHT22;62026;39.230;9.122;2023-04-01T19:37:39;16.70;53.80
67598;DHT22;62026;39.230;9.122;2023-04-01T19:40:37;16.70;53.90
67598;DHT22;62026;39.230;9.122;2023-04-01T19:46:16;16.70;53.80
67598;DHT22;62026;39.230;9.122;2023-04-01T19:49:14;16.70;53.90
67598;DHT22;62026;39.230;9.122;2023-04-01T20:06:06;16.60;53.10
67598;DHT22;62026;39.230;9.122;2023-04-01T20:08:40;16.60;53.30
67598;DHT22;62026;39.230;9.122;2023-04-01T20:35:31;16.40;53.90
67598;DHT22;62026;39.230;9.122;2023-04-01T21:03:08;16.30;53.40
67598;DHT22;62026;39.230;9.122;2023-04-01T21:06:04;16.30;53.20
67598;DHT22;62026;39.230;9.122;2023-04-01T21:15:17;16.20;53.00
67598;DHT22;62026;39.230;9.122;2023-04-01T21:30:01;16.10;53.00
67598;DHT22;62026;39.230;9.122;2023-04-01T21:35:44;16.10;53.20
67598;DHT22;62026;39.230;9.122;2023-04-01T22:00:17;15.80;54.40
67598;DHT22;62026;39.230;9.122;2023-04-01T22:14:14;15.70;54.50
67598;DHT22;62026;39.230;9.122;2023-04-01T22:17:20;15.70;54.30
67598;DHT22;62026;39.230;9.122;2023-04-01T22:31:22;15.60;54.90
67598;DHT22;62026;39.230;9.122;2023-04-01T22:36:50;15.40;56.50
67598;DHT22;62026;39.230;9.122;2023-04-01T22:40:00;15.20;56.80
67598;DHT22;62026;39.230;9.122;2023-04-01T22:42:43;15.20;57.20
67598;DHT22;62026;39.230;9.122;2023-04-01T22:48:44;15.20;57.40
67598;DHT22;62026;39.230;9.122;2023-04-01T22:59:51;15.20;57.40
67598;DHT22;62026;39.230;9.122;2023-04-01T23:02:20;15.20;57.50
67598;DHT22;62026;39.230;9.122;2023-04-01T23:05:00;15.10;57.60
67598;DHT22;62026;39.230;9.122;2023-04-01T23:13:06;15.10;57.80
67598;DHT22;62026;39.230;9.122;2023-04-01T23:15:38;15.10;57.80
67598;DHT22;62026;39.230;9.122;2023-04-01T23:21:19;15.10;57.90
67598;DHT22;62026;39.230;9.122;2023-04-01T23:27:05;15.10;57.90
67598;DHT22;62026;39.230;9.122;2023-04-01T23:29:38;15.10;58.10
67598;DHT22;62026;39.230;9.122;2023-04-01T23:32:19;15.10;58.20
67598;DHT22;62026;39.230;9.122;2023-04-01T23:34:56;15.10;58.10
67598;DHT22;62026;39.230;9.122;2023-04-01T23:37:25;15.10;58.20
67598;DHT22;62026;39.230;9.122;2023-04-01T23:39:57;15.10;58.30
67598;DHT22;62026;39.230;9.122;2023-04-01T23:42:29;15.10;58.40
67598;DHT22;62026;39.230;9.122;2023-04-01T23:45:14;15.00;58.50
67598;DHT22;62026;39.230;9.122;2023-04-01T23:47:46;15.00;58.70
67598;DHT22;62026;39.230;9.122;2023-04-01T23:50:22;15.00;58.80
67598;DHT22;62026;39.230;9.122;2023-04-01T23:53:04;15.00;58.90
67598;DHT22;62026;39.230;9.122;2023-04-01T23:55:42;15.00;59.00
